sensor_id;sensor_type;location;lat;lon;timestamp;P1;durP1;ratioP1;P2;durP2;ratioP2
39882;SDS011;55824;52.220;21.040;2023-07-02T00:00:12;7.32;;;5.45;;
39882;SDS011;55824;52.220;21.040;2023-07-02T00:02:38;6.90;;;4.68;;
39882;SDS011;55824;52.220;21.040;2023-07-02T00:05:04;7.97;;;5.18;;
39882;SDS011;55824;52.220;21.040;2023-07-02T00:07:30;7.47;;;5.43;;
39882;SDS011;55824;52.220;21.040;2023-07-02T00:09:57;7.57;;;5.30;;
39882;SDS011;55824;52.220;21.040;2023-07-02T00:12:23;6.47;;;4.97;;
39882;SDS011;55824;52.220;21.040;2023-07-02T00:14:49;7.80;;;5.85;;
39882;SDS011;55824;52.220;21.040;2023-07-02T00:17:18;7.20;;;5.60;;
39882;SDS011;55824;52.220;21.040;2023-07-02T00:19:43;8.88;;;5.55;;
39882;SDS011;55824;52.220;21.040;2023-07-02T00:22:10;6.35;;;5.18;;
39882;SDS011;55824;52.220;21.040;2023-07-02T00:24:36;7.07;;;5.25;;
39882;SDS011;55824;52.220;21.040;2023-07-02T00:27:02;6.30;;;4.85;;
39882;SDS011;55824;52.220;21.040;2023-07-02T00:29:28;7.30;;;5.38;;
39882;SDS011;55824;52.220;21.040;2023-07-02T00:31:54;7.70;;;5.10;;
39882;SDS011;55824;52.220;21.040;2023-07-02T00:34:20;7.35;;;5.47;;
39882;SDS011;55824;52.220;21.040;2023-07-02T00:36:46;7.55;;;5.65;;
39882;SDS011;55824;52.220;21.040;2023-07-02T00:39:12;7.80;;;6.03;;
39882;SDS011;55824;52.220;21.040;2023-07-02T00:41:38;6.38;;;4.95;;
39882;SDS011;55824;52.220;21.040;2023-07-02T00:44:06;7.50;;;5.57;;
39882;SDS011;55824;52.220;21.040;2023-07-02T00:46:34;7.93;;;5.80;;
39882;SDS011;55824;52.220;21.040;2023-07-02T00:49:00;6.50;;;5.53;;
39882;SDS011;55824;52.220;21.040;2023-07-02T00:51:28;6.97;;;5.80;;
39882;SDS011;55824;52.220;21.040;2023-07-02T00:53:54;7.90;;;5.70;;
39882;SDS011;55824;52.220;21.040;2023-07-02T00:56:21;7.35;;;5.43;;
39882;SDS011;55824;52.220;21.040;2023-07-02T00:58:48;7.35;;;5.55;;
39882;SDS011;55824;52.220;21.040;2023-07-02T01:01:15;7.32;;;5.50;;
39882;SDS011;55824;52.220;21.040;2023-07-02T01:06:22;6.47;;;5.22;;
39882;SDS011;55824;52.220;21.040;2023-07-02T01:08:50;8.35;;;6.10;;
39882;SDS011;55824;52.220;21.040;2023-07-02T01:11:17;6.65;;;5.40;;
39882;SDS011;55824;52.220;21.040;2023-07-02T01:13:43;6.35;;;5.10;;
39882;SDS011;55824;52.220;21.040;2023-07-02T01:16:10;6.53;;;4.95;;
39882;SDS011;55824;52.220;21.040;2023-07-02T01:18:36;5.85;;;4.65;;
39882;SDS011;55824;52.220;21.040;2023-07-02T01:21:03;6.75;;;5.28;;
39882;SDS011;55824;52.220;21.040;2023-07-02T01:23:31;7.15;;;5.75;;
39882;SDS011;55824;52.220;21.040;2023-07-02T01:25:57;6.45;;;5.25;;
39882;SDS011;55824;52.220;21.040;2023-07-02T01:28:24;7.57;;;5.45;;
39882;SDS011;55824;52.220;21.040;2023-07-02T01:30:50;7.10;;;5.28;;
39882;SDS011;55824;52.220;21.040;2023-07-02T01:33:16;7.15;;;5.53;;
39882;SDS011;55824;52.220;21.040;2023-07-02T01:35:42;8.40;;;5.60;;
39882;SDS011;55824;52.220;21.040;2023-07-02T01:38:08;7.50;;;5.90;;
39882;SDS011;55824;52.220;21.040;2023-07-02T01:40:34;8.23;;;6.10;;
39882;SDS011;55824;52.220;21.040;2023-07-02T01:43:00;6.93;;;5.45;;
39882;SDS011;55824;52.220;21.040;2023-07-02T01:45:26;7.40;;;5.57;;
39882;SDS011;55824;52.220;21.040;2023-07-02T01:47:52;7.15;;;5.13;;
39882;SDS011;55824;52.220;21.040;2023-07-02T01:50:18;7.50;;;5.50;;
39882;SDS011;55824;52.220;21.040;2023-07-02T01:52:44;6.40;;;5.00;;
39882;SDS011;55824;52.220;21.040;2023-07-02T01:55:09;7.30;;;5.72;;
39882;SDS011;55824;52.220;21.040;2023-07-02T01:57:36;7.45;;;5.95;;
39882;SDS011;55824;52.220;21.040;2023-07-02T02:00:02;7.75;;;5.72;;
39882;SDS011;55824;52.220;21.040;2023-07-02T02:02:28;7.57;;;5.88;;
39882;SDS011;55824;52.220;21.040;2023-07-02T02:04:54;8.60;;;6.28;;
39882;SDS011;55824;52.220;21.040;2023-07-02T02:07:21;8.15;;;6.20;;
39882;SDS011;55824;52.220;21.040;2023-07-02T02:09:47;8.07;;;6.15;;
39882;SDS011;55824;52.220;21.040;2023-07-02T02:12:13;7.20;;;5.85;;
39882;SDS011;55824;52.220;21.040;2023-07-02T02:14:39;7.38;;;6.05;;
39882;SDS011;55824;52.220;21.040;2023-07-02T02:17:05;6.75;;;5.38;;
39882;SDS011;55824;52.220;21.040;2023-07-02T02:19:31;8.80;;;6.38;;
39882;SDS011;55824;52.220;21.040;2023-07-02T02:21:57;6.68;;;5.70;;
39882;SDS011;55824;52.220;21.040;2023-07-02T02:24:23;7.22;;;5.88;;
39882;SDS011;55824;52.220;21.040;2023-07-02T02:26:49;7.10;;;5.72;;
39882;SDS011;55824;52.220;21.040;2023-07-02T02:29:15;7.00;;;6.00;;
39882;SDS011;55824;52.220;21.040;2023-07-02T02:31:42;7.68;;;5.50;;
39882;SDS011;55824;52.220;21.040;2023-07-02T02:34:08;6.75;;;5.40;;
39882;SDS011;55824;52.220;21.040;2023-07-02T02:36:34;7.82;;;5.93;;
39882;SDS011;55824;52.220;21.040;2023-07-02T02:39:00;7.65;;;6.15;;
39882;SDS011;55824;52.220;21.040;2023-07-02T02:41:26;8.23;;;5.95;;
39882;SDS011;55824;52.220;21.040;2023-07-02T02:43:52;7.10;;;5.70;;
39882;SDS011;55824;52.220;21.040;2023-07-02T02:46:21;7.60;;;6.50;;
39882;SDS011;55824;52.220;21.040;2023-07-02T02:48:48;7.40;;;5.85;;
39882;SDS011;55824;52.220;21.040;2023-07-02T02:51:14;7.60;;;6.07;;
39882;SDS011;55824;52.220;21.040;2023-07-02T02:53:40;7.95;;;5.82;;
39882;SDS011;55824;52.220;21.040;2023-07-02T02:56:06;8.95;;;6.40;;
39882;SDS011;55824;52.220;21.040;2023-07-02T02:58:32;7.25;;;6.00;;
39882;SDS011;55824;52.220;21.040;2023-07-02T03:00:58;8.07;;;6.38;;
39882;SDS011;55824;52.220;21.040;2023-07-02T03:03:24;7.65;;;6.10;;
39882;SDS011;55824;52.220;21.040;2023-07-02T03:05:50;7.15;;;6.13;;
39882;SDS011;55824;52.220;21.040;2023-07-02T03:08:16;7.47;;;6.22;;
39882;SDS011;55824;52.220;21.040;2023-07-02T03:10:42;8.00;;;6.72;;
39882;SDS011;55824;52.220;21.040;2023-07-02T03:13:09;7.10;;;5.72;;
39882;SDS011;55824;52.220;21.040;2023-07-02T03:15:35;7.15;;;6.10;;
39882;SDS011;55824;52.220;21.040;2023-07-02T03:18:00;7.20;;;5.80;;
39882;SDS011;55824;52.220;21.040;2023-07-02T03:20:26;7.95;;;6.93;;
39882;SDS011;55824;52.220;21.040;2023-07-02T03:22:52;9.63;;;7.57;;
39882;SDS011;55824;52.220;21.040;2023-07-02T03:25:18;8.63;;;6.38;;
39882;SDS011;55824;52.220;21.040;2023-07-02T03:27:44;7.72;;;6.28;;
39882;SDS011;55824;52.220;21.040;2023-07-02T03:30:10;7.38;;;6.00;;
39882;SDS011;55824;52.220;21.040;2023-07-02T03:32:36;8.10;;;6.68;;
39882;SDS011;55824;52.220;21.040;2023-07-02T03:35:02;8.65;;;6.95;;
39882;SDS011;55824;52.220;21.040;2023-07-02T03:37:28;7.13;;;6.00;;
39882;SDS011;55824;52.220;21.040;2023-07-02T03:39:54;6.78;;;5.70;;
39882;SDS011;55824;52.220;21.040;2023-07-02T03:42:20;7.53;;;5.43;;
39882;SDS011;55824;52.220;21.040;2023-07-02T03:44:46;7.65;;;6.13;;
39882;SDS011;55824;52.220;21.040;2023-07-02T03:47:12;7.95;;;6.13;;
39882;SDS011;55824;52.220;21.040;2023-07-02T03:49:41;7.90;;;6.00;;
39882;SDS011;55824;52.220;21.040;2023-07-02T03:52:07;7.97;;;5.88;;
39882;SDS011;55824;52.220;21.040;2023-07-02T03:54:33;7.57;;;6.13;;
39882;SDS011;55824;52.220;21.040;2023-07-02T03:56:59;8.15;;;6.22;;
39882;SDS011;55824;52.220;21.040;2023-07-02T03:59:25;7.63;;;6.35;;
39882;SDS011;55824;52.220;21.040;2023-07-02T04:01:51;8.40;;;5.90;;
39882;SDS011;55824;52.220;21.040;2023-07-02T04:04:16;7.55;;;6.18;;
39882;SDS011;55824;52.220;21.040;2023-07-02T04:06:42;7.93;;;6.30;;
39882;SDS011;55824;52.220;21.040;2023-07-02T04:09:08;7.95;;;6.18;;
39882;SDS011;55824;52.220;21.040;2023-07-02T04:11:34;7.28;;;6.07;;
39882;SDS011;55824;52.220;21.040;2023-07-02T04:14:00;7.80;;;6.30;;
39882;SDS011;55824;52.220;21.040;2023-07-02T04:16:27;7.60;;;6.00;;
39882;SDS011;55824;52.220;21.040;2023-07-02T04:18:53;7.97;;;6.22;;
39882;SDS011;55824;52.220;21.040;2023-07-02T04:21:19;7.68;;;6.35;;
39882;SDS011;55824;52.220;21.040;2023-07-02T04:23:45;6.95;;;5.68;;
39882;SDS011;55824;52.220;21.040;2023-07-02T04:26:11;7.30;;;5.75;;
39882;SDS011;55824;52.220;21.040;2023-07-02T04:28:37;7.18;;;5.47;;
39882;SDS011;55824;52.220;21.040;2023-07-02T04:31:03;6.57;;;5.22;;
39882;SDS011;55824;52.220;21.040;2023-07-02T04:33:29;8.27;;;6.50;;
39882;SDS011;55824;52.220;21.040;2023-07-02T04:36:00;7.03;;;5.60;;
39882;SDS011;55824;52.220;21.040;2023-07-02T04:38:26;7.65;;;5.45;;
39882;SDS011;55824;52.220;21.040;2023-07-02T04:40:53;8.43;;;6.78;;
39882;SDS011;55824;52.220;21.040;2023-07-02T04:43:19;7.07;;;5.75;;
39882;SDS011;55824;52.220;21.040;2023-07-02T04:45:46;7.25;;;6.03;;
39882;SDS011;55824;52.220;21.040;2023-07-02T04:48:13;8.68;;;6.70;;
39882;SDS011;55824;52.220;21.040;2023-07-02T04:50:39;7.50;;;6.40;;
39882;SDS011;55824;52.220;21.040;2023-07-02T04:53:05;6.95;;;5.80;;
39882;SDS011;55824;52.220;21.040;2023-07-02T04:55:31;7.10;;;6.35;;
39882;SDS011;55824;52.220;21.040;2023-07-02T04:57:57;8.10;;;6.38;;
39882;SDS011;55824;52.220;21.040;2023-07-02T05:00:23;7.18;;;6.07;;
39882;SDS011;55824;52.220;21.040;2023-07-02T05:02:49;7.28;;;6.28;;
39882;SDS011;55824;52.220;21.040;2023-07-02T05:05:15;8.25;;;6.63;;
39882;SDS011;55824;52.220;21.040;2023-07-02T05:07:41;6.85;;;5.80;;
39882;SDS011;55824;52.220;21.040;2023-07-02T05:10:07;7.53;;;5.43;;
39882;SDS011;55824;52.220;21.040;2023-07-02T05:12:33;7.80;;;5.78;;
39882;SDS011;55824;52.220;21.040;2023-07-02T05:14:59;7.97;;;5.90;;
39882;SDS011;55824;52.220;21.040;2023-07-02T05:17:25;6.80;;;5.70;;
39882;SDS011;55824;52.220;21.040;2023-07-02T05:19:51;7.75;;;5.93;;
39882;SDS011;55824;52.220;21.040;2023-07-02T05:22:17;7.40;;;5.90;;
39882;SDS011;55824;52.220;21.040;2023-07-02T05:24:43;7.22;;;6.13;;
39882;SDS011;55824;52.220;21.040;2023-07-02T05:27:11;6.35;;;5.65;;
39882;SDS011;55824;52.220;21.040;2023-07-02T05:29:37;7.00;;;5.25;;
39882;SDS011;55824;52.220;21.040;2023-07-02T05:32:03;6.97;;;5.85;;
39882;SDS011;55824;52.220;21.040;2023-07-02T05:34:29;7.28;;;5.93;;
39882;SDS011;55824;52.220;21.040;2023-07-02T05:36:55;7.07;;;6.13;;
39882;SDS011;55824;52.220;21.040;2023-07-02T05:39:21;7.22;;;5.68;;
39882;SDS011;55824;52.220;21.040;2023-07-02T05:41:47;7.13;;;5.88;;
39882;SDS011;55824;52.220;21.040;2023-07-02T05:44:13;8.90;;;6.38;;
39882;SDS011;55824;52.220;21.040;2023-07-02T05:46:39;7.43;;;5.85;;
39882;SDS011;55824;52.220;21.040;2023-07-02T05:49:05;9.20;;;6.25;;
39882;SDS011;55824;52.220;21.040;2023-07-02T05:51:31;7.25;;;5.72;;
39882;SDS011;55824;52.220;21.040;2023-07-02T05:53:57;7.45;;;6.10;;
39882;SDS011;55824;52.220;21.040;2023-07-02T05:56:23;7.13;;;5.65;;
39882;SDS011;55824;52.220;21.040;2023-07-02T05:58:49;7.18;;;5.63;;
39882;SDS011;55824;52.220;21.040;2023-07-02T06:01:15;6.72;;;5.47;;
39882;SDS011;55824;52.220;21.040;2023-07-02T06:03:41;7.93;;;5.82;;
39882;SDS011;55824;52.220;21.040;2023-07-02T06:06:10;6.40;;;5.53;;
39882;SDS011;55824;52.220;21.040;2023-07-02T06:08:36;7.00;;;5.82;;
39882;SDS011;55824;52.220;21.040;2023-07-02T06:11:02;7.00;;;5.25;;
39882;SDS011;55824;52.220;21.040;2023-07-02T06:13:28;7.35;;;5.75;;
39882;SDS011;55824;52.220;21.040;2023-07-02T06:15:54;7.65;;;5.88;;
39882;SDS011;55824;52.220;21.040;2023-07-02T06:18:20;6.15;;;5.15;;
39882;SDS011;55824;52.220;21.040;2023-07-02T06:20:46;7.47;;;5.95;;
39882;SDS011;55824;52.220;21.040;2023-07-02T06:23:12;7.47;;;5.97;;
39882;SDS011;55824;52.220;21.040;2023-07-02T06:25:38;6.95;;;5.60;;
39882;SDS011;55824;52.220;21.040;2023-07-02T06:28:04;7.82;;;5.70;;
39882;SDS011;55824;52.220;21.040;2023-07-02T06:30:30;6.57;;;5.63;;
39882;SDS011;55824;52.220;21.040;2023-07-02T06:32:56;7.07;;;5.15;;
39882;SDS011;55824;52.220;21.040;2023-07-02T06:35:22;6.40;;;5.25;;
39882;SDS011;55824;52.220;21.040;2023-07-02T06:37:48;6.18;;;5.38;;
39882;SDS011;55824;52.220;21.040;2023-07-02T06:40:14;6.82;;;5.43;;
39882;SDS011;55824;52.220;21.040;2023-07-02T06:42:40;6.65;;;5.30;;
39882;SDS011;55824;52.220;21.040;2023-07-02T06:45:06;6.60;;;5.25;;
39882;SDS011;55824;52.220;21.040;2023-07-02T06:47:32;7.03;;;5.30;;
39882;SDS011;55824;52.220;21.040;2023-07-02T06:49:58;6.45;;;5.18;;
39882;SDS011;55824;52.220;21.040;2023-07-02T06:52:24;6.78;;;5.28;;
39882;SDS011;55824;52.220;21.040;2023-07-02T06:54:50;6.45;;;5.18;;
39882;SDS011;55824;52.220;21.040;2023-07-02T06:57:16;6.40;;;5.20;;
39882;SDS011;55824;52.220;21.040;2023-07-02T06:59:42;7.55;;;5.75;;
39882;SDS011;55824;52.220;21.040;2023-07-02T07:02:08;6.68;;;5.22;;
39882;SDS011;55824;52.220;21.040;2023-07-02T07:04:34;7.13;;;5.60;;
39882;SDS011;55824;52.220;21.040;2023-07-02T07:07:00;6.05;;;4.78;;
39882;SDS011;55824;52.220;21.040;2023-07-02T07:09:29;6.68;;;5.05;;
39882;SDS011;55824;52.220;21.040;2023-07-02T07:11:55;6.65;;;5.43;;
39882;SDS011;55824;52.220;21.040;2023-07-02T07:14:22;7.10;;;5.53;;
39882;SDS011;55824;52.220;21.040;2023-07-02T07:16:48;6.53;;;5.18;;
39882;SDS011;55824;52.220;21.040;2023-07-02T07:19:14;6.82;;;5.30;;
39882;SDS011;55824;52.220;21.040;2023-07-02T07:21:40;6.53;;;5.22;;
39882;SDS011;55824;52.220;21.040;2023-07-02T07:24:07;7.10;;;5.95;;
39882;SDS011;55824;52.220;21.040;2023-07-02T07:26:33;6.93;;;5.10;;
39882;SDS011;55824;52.220;21.040;2023-07-02T07:28:59;6.25;;;4.95;;
39882;SDS011;55824;52.220;21.040;2023-07-02T07:31:25;7.38;;;5.43;;
39882;SDS011;55824;52.220;21.040;2023-07-02T07:33:51;5.47;;;4.38;;
39882;SDS011;55824;52.220;21.040;2023-07-02T07:36:17;7.00;;;4.82;;
39882;SDS011;55824;52.220;21.040;2023-07-02T07:38:43;7.65;;;5.32;;
39882;SDS011;55824;52.220;21.040;2023-07-02T07:41:09;7.10;;;5.20;;
39882;SDS011;55824;52.220;21.040;2023-07-02T07:43:35;6.75;;;5.20;;
39882;SDS011;55824;52.220;21.040;2023-07-02T07:46:01;6.03;;;5.00;;
39882;SDS011;55824;52.220;21.040;2023-07-02T07:48:27;5.68;;;4.45;;
39882;SDS011;55824;52.220;21.040;2023-07-02T07:50:53;6.40;;;4.80;;
39882;SDS011;55824;52.220;21.040;2023-07-02T07:53:19;6.25;;;4.60;;
39882;SDS011;55824;52.220;21.040;2023-07-02T07:55:45;6.35;;;4.60;;
39882;SDS011;55824;52.220;21.040;2023-07-02T07:58:11;6.97;;;4.55;;
39882;SDS011;55824;52.220;21.040;2023-07-02T08:00:37;5.72;;;4.93;;
39882;SDS011;55824;52.220;21.040;2023-07-02T08:03:03;5.30;;;4.22;;
39882;SDS011;55824;52.220;21.040;2023-07-02T08:05:30;6.60;;;5.18;;
39882;SDS011;55824;52.220;21.040;2023-07-02T08:07:56;7.30;;;4.65;;
39882;SDS011;55824;52.220;21.040;2023-07-02T08:10:23;6.13;;;4.65;;
39882;SDS011;55824;52.220;21.040;2023-07-02T08:12:50;6.07;;;4.78;;
39882;SDS011;55824;52.220;21.040;2023-07-02T08:15:17;5.82;;;4.22;;
39882;SDS011;55824;52.220;21.040;2023-07-02T08:17:43;6.32;;;4.57;;
39882;SDS011;55824;52.220;21.040;2023-07-02T08:20:09;6.75;;;4.60;;
39882;SDS011;55824;52.220;21.040;2023-07-02T08:22:38;5.47;;;4.30;;
39882;SDS011;55824;52.220;21.040;2023-07-02T08:27:30;6.35;;;4.38;;
39882;SDS011;55824;52.220;21.040;2023-07-02T08:29:56;5.57;;;4.40;;
39882;SDS011;55824;52.220;21.040;2023-07-02T08:32:22;8.10;;;4.70;;
39882;SDS011;55824;52.220;21.040;2023-07-02T08:34:48;5.90;;;4.45;;
39882;SDS011;55824;52.220;21.040;2023-07-02T08:37:15;5.82;;;3.78;;
39882;SDS011;55824;52.220;21.040;2023-07-02T08:39:41;4.80;;;3.88;;
39882;SDS011;55824;52.220;21.040;2023-07-02T08:42:07;5.40;;;4.03;;
39882;SDS011;55824;52.220;21.040;2023-07-02T08:44:34;5.80;;;4.47;;
39882;SDS011;55824;52.220;21.040;2023-07-02T08:47:03;5.57;;;4.38;;
39882;SDS011;55824;52.220;21.040;2023-07-02T08:49:29;5.63;;;3.90;;
39882;SDS011;55824;52.220;21.040;2023-07-02T08:51:55;6.20;;;4.00;;
39882;SDS011;55824;52.220;21.040;2023-07-02T08:54:21;5.68;;;4.15;;
39882;SDS011;55824;52.220;21.040;2023-07-02T08:56:47;6.57;;;4.10;;
39882;SDS011;55824;52.220;21.040;2023-07-02T08:59:13;5.22;;;4.22;;
39882;SDS011;55824;52.220;21.040;2023-07-02T09:04:16;5.05;;;4.05;;
39882;SDS011;55824;52.220;21.040;2023-07-02T09:06:42;5.60;;;4.35;;
39882;SDS011;55824;52.220;21.040;2023-07-02T09:09:08;4.90;;;3.88;;
39882;SDS011;55824;52.220;21.040;2023-07-02T09:11:34;6.68;;;5.10;;
39882;SDS011;55824;52.220;21.040;2023-07-02T09:14:00;7.55;;;5.30;;
39882;SDS011;55824;52.220;21.040;2023-07-02T09:21:45;6.68;;;4.82;;
39882;SDS011;55824;52.220;21.040;2023-07-02T09:26:47;5.40;;;3.80;;
39882;SDS011;55824;52.220;21.040;2023-07-02T09:31:48;4.82;;;3.72;;
39882;SDS011;55824;52.220;21.040;2023-07-02T09:34:14;5.45;;;3.78;;
39882;SDS011;55824;52.220;21.040;2023-07-02T09:36:40;5.57;;;3.72;;
39882;SDS011;55824;52.220;21.040;2023-07-02T09:39:28;4.78;;;3.67;;
39882;SDS011;55824;52.220;21.040;2023-07-02T09:41:54;4.28;;;3.15;;
39882;SDS011;55824;52.220;21.040;2023-07-02T09:44:21;5.82;;;3.45;;
39882;SDS011;55824;52.220;21.040;2023-07-02T09:49:22;5.00;;;3.58;;
39882;SDS011;55824;52.220;21.040;2023-07-02T09:51:48;5.55;;;3.50;;
39882;SDS011;55824;52.220;21.040;2023-07-02T09:54:14;4.82;;;3.67;;
39882;SDS011;55824;52.220;21.040;2023-07-02T09:56:41;4.18;;;3.13;;
39882;SDS011;55824;52.220;21.040;2023-07-02T09:59:07;4.00;;;3.08;;
39882;SDS011;55824;52.220;21.040;2023-07-02T10:01:33;4.47;;;3.03;;
39882;SDS011;55824;52.220;21.040;2023-07-02T10:04:09;4.93;;;3.70;;
39882;SDS011;55824;52.220;21.040;2023-07-02T10:06:47;5.18;;;3.65;;
39882;SDS011;55824;52.220;21.040;2023-07-02T10:09:15;4.30;;;3.35;;
39882;SDS011;55824;52.220;21.040;2023-07-02T10:11:41;4.38;;;3.33;;
39882;SDS011;55824;52.220;21.040;2023-07-02T10:14:07;4.40;;;3.28;;
39882;SDS011;55824;52.220;21.040;2023-07-02T10:16:33;4.55;;;3.28;;
39882;SDS011;55824;52.220;21.040;2023-07-02T10:19:14;4.70;;;3.42;;
39882;SDS011;55824;52.220;21.040;2023-07-02T10:21:40;4.43;;;3.30;;
39882;SDS011;55824;52.220;21.040;2023-07-02T10:24:10;4.53;;;3.22;;
39882;SDS011;55824;52.220;21.040;2023-07-02T10:26:36;3.30;;;2.65;;
39882;SDS011;55824;52.220;21.040;2023-07-02T10:29:02;4.20;;;2.83;;
39882;SDS011;55824;52.220;21.040;2023-07-02T10:31:28;4.78;;;3.17;;
39882;SDS011;55824;52.220;21.040;2023-07-02T10:33:54;3.80;;;3.03;;
39882;SDS011;55824;52.220;21.040;2023-07-02T10:36:21;3.80;;;2.80;;
39882;SDS011;55824;52.220;21.040;2023-07-02T10:38:48;4.43;;;3.00;;
39882;SDS011;55824;52.220;21.040;2023-07-02T10:41:27;3.90;;;2.83;;
39882;SDS011;55824;52.220;21.040;2023-07-02T10:43:53;4.32;;;3.20;;
39882;SDS011;55824;52.220;21.040;2023-07-02T10:46:20;5.20;;;2.75;;
39882;SDS011;55824;52.220;21.040;2023-07-02T10:49:04;3.85;;;2.95;;
39882;SDS011;55824;52.220;21.040;2023-07-02T10:51:33;4.07;;;2.78;;
39882;SDS011;55824;52.220;21.040;2023-07-02T10:54:00;4.03;;;2.95;;
39882;SDS011;55824;52.220;21.040;2023-07-02T10:56:27;3.40;;;2.50;;
39882;SDS011;55824;52.220;21.040;2023-07-02T10:58:53;3.25;;;2.63;;
39882;SDS011;55824;52.220;21.040;2023-07-02T11:01:23;4.18;;;3.13;;
39882;SDS011;55824;52.220;21.040;2023-07-02T11:06:15;4.63;;;2.83;;
39882;SDS011;55824;52.220;21.040;2023-07-02T11:08:41;3.08;;;2.35;;
39882;SDS011;55824;52.220;21.040;2023-07-02T11:11:07;3.35;;;2.40;;
39882;SDS011;55824;52.220;21.040;2023-07-02T11:13:33;3.58;;;2.45;;
39882;SDS011;55824;52.220;21.040;2023-07-02T11:15:59;4.72;;;2.70;;
39882;SDS011;55824;52.220;21.040;2023-07-02T11:18:29;3.83;;;2.40;;
39882;SDS011;55824;52.220;21.040;2023-07-02T11:20:56;3.30;;;2.55;;
39882;SDS011;55824;52.220;21.040;2023-07-02T11:23:23;4.38;;;2.72;;
39882;SDS011;55824;52.220;21.040;2023-07-02T11:26:02;3.17;;;2.20;;
39882;SDS011;55824;52.220;21.040;2023-07-02T11:28:29;3.67;;;2.53;;
39882;SDS011;55824;52.220;21.040;2023-07-02T11:30:56;3.20;;;2.40;;
39882;SDS011;55824;52.220;21.040;2023-07-02T11:33:32;3.63;;;2.58;;
39882;SDS011;55824;52.220;21.040;2023-07-02T11:35:58;3.83;;;2.25;;
39882;SDS011;55824;52.220;21.040;2023-07-02T11:38:24;3.88;;;2.50;;
39882;SDS011;55824;52.220;21.040;2023-07-02T11:40:50;3.88;;;2.30;;
39882;SDS011;55824;52.220;21.040;2023-07-02T11:43:16;3.60;;;2.30;;
39882;SDS011;55824;52.220;21.040;2023-07-02T11:45:42;3.63;;;2.80;;
39882;SDS011;55824;52.220;21.040;2023-07-02T11:48:09;2.67;;;2.17;;
39882;SDS011;55824;52.220;21.040;2023-07-02T11:50:34;3.38;;;2.30;;
39882;SDS011;55824;52.220;21.040;2023-07-02T11:53:00;2.85;;;2.08;;
39882;SDS011;55824;52.220;21.040;2023-07-02T11:55:27;2.83;;;2.13;;
39882;SDS011;55824;52.220;21.040;2023-07-02T11:57:53;2.95;;;2.15;;
39882;SDS011;55824;52.220;21.040;2023-07-02T12:00:19;2.95;;;2.38;;
39882;SDS011;55824;52.220;21.040;2023-07-02T12:02:46;3.00;;;2.50;;
39882;SDS011;55824;52.220;21.040;2023-07-02T12:05:12;4.05;;;2.55;;
39882;SDS011;55824;52.220;21.040;2023-07-02T12:07:38;3.22;;;2.30;;
39882;SDS011;55824;52.220;21.040;2023-07-02T12:10:04;2.90;;;2.10;;
39882;SDS011;55824;52.220;21.040;2023-07-02T12:12:30;2.85;;;2.10;;
39882;SDS011;55824;52.220;21.040;2023-07-02T12:14:56;3.00;;;2.20;;
39882;SDS011;55824;52.220;21.040;2023-07-02T12:17:22;2.35;;;2.00;;
39882;SDS011;55824;52.220;21.040;2023-07-02T12:19:48;3.03;;;2.00;;
39882;SDS011;55824;52.220;21.040;2023-07-02T12:22:14;3.53;;;2.22;;
39882;SDS011;55824;52.220;21.040;2023-07-02T12:24:42;2.97;;;2.38;;
39882;SDS011;55824;52.220;21.040;2023-07-02T12:27:08;2.78;;;1.90;;
39882;SDS011;55824;52.220;21.040;2023-07-02T12:29:35;2.83;;;2.13;;
39882;SDS011;55824;52.220;21.040;2023-07-02T12:32:01;3.10;;;2.20;;
39882;SDS011;55824;52.220;21.040;2023-07-02T12:34:27;3.00;;;1.98;;
39882;SDS011;55824;52.220;21.040;2023-07-02T12:36:54;2.50;;;1.85;;
39882;SDS011;55824;52.220;21.040;2023-07-02T12:39:20;3.72;;;2.00;;
39882;SDS011;55824;52.220;21.040;2023-07-02T12:41:46;3.40;;;2.20;;
39882;SDS011;55824;52.220;21.040;2023-07-02T12:44:12;3.42;;;2.08;;
39882;SDS011;55824;52.220;21.040;2023-07-02T12:46:38;2.35;;;1.92;;
39882;SDS011;55824;52.220;21.040;2023-07-02T12:49:04;2.65;;;1.90;;
39882;SDS011;55824;52.220;21.040;2023-07-02T12:51:30;3.30;;;1.90;;
39882;SDS011;55824;52.220;21.040;2023-07-02T12:53:56;3.08;;;2.30;;
39882;SDS011;55824;52.220;21.040;2023-07-02T12:56:22;2.22;;;1.73;;
39882;SDS011;55824;52.220;21.040;2023-07-02T12:58:48;2.38;;;2.00;;
39882;SDS011;55824;52.220;21.040;2023-07-02T13:01:16;4.00;;;1.83;;
39882;SDS011;55824;52.220;21.040;2023-07-02T13:03:45;2.42;;;1.90;;
39882;SDS011;55824;52.220;21.040;2023-07-02T13:06:15;2.50;;;1.85;;
39882;SDS011;55824;52.220;21.040;2023-07-02T13:08:41;2.65;;;1.75;;
39882;SDS011;55824;52.220;21.040;2023-07-02T13:11:07;2.60;;;2.10;;
39882;SDS011;55824;52.220;21.040;2023-07-02T13:13:34;4.68;;;1.70;;
39882;SDS011;55824;52.220;21.040;2023-07-02T13:16:01;2.78;;;2.05;;
39882;SDS011;55824;52.220;21.040;2023-07-02T13:18:27;2.58;;;1.90;;
39882;SDS011;55824;52.220;21.040;2023-07-02T13:20:53;2.92;;;1.88;;
39882;SDS011;55824;52.220;21.040;2023-07-02T13:23:18;2.97;;;1.80;;
39882;SDS011;55824;52.220;21.040;2023-07-02T13:25:44;2.83;;;2.00;;
39882;SDS011;55824;52.220;21.040;2023-07-02T13:28:11;2.15;;;1.63;;
39882;SDS011;55824;52.220;21.040;2023-07-02T13:30:37;1.77;;;1.50;;
39882;SDS011;55824;52.220;21.040;2023-07-02T13:33:03;2.60;;;1.88;;
39882;SDS011;55824;52.220;21.040;2023-07-02T13:35:29;2.35;;;1.90;;
39882;SDS011;55824;52.220;21.040;2023-07-02T13:37:56;3.38;;;2.25;;
39882;SDS011;55824;52.220;21.040;2023-07-02T13:40:24;3.10;;;1.80;;
39882;SDS011;55824;52.220;21.040;2023-07-02T13:42:50;2.83;;;1.70;;
39882;SDS011;55824;52.220;21.040;2023-07-02T13:45:16;2.22;;;1.70;;
39882;SDS011;55824;52.220;21.040;2023-07-02T13:47:42;2.38;;;1.83;;
39882;SDS011;55824;52.220;21.040;2023-07-02T13:50:08;4.55;;;1.80;;
39882;SDS011;55824;52.220;21.040;2023-07-02T13:52:34;2.65;;;1.70;;
39882;SDS011;55824;52.220;21.040;2023-07-02T13:55:00;2.33;;;1.70;;
39882;SDS011;55824;52.220;21.040;2023-07-02T13:57:26;2.08;;;1.50;;
39882;SDS011;55824;52.220;21.040;2023-07-02T13:59:52;2.53;;;1.77;;
39882;SDS011;55824;52.220;21.040;2023-07-02T14:02:18;2.63;;;1.80;;
39882;SDS011;55824;52.220;21.040;2023-07-02T14:04:44;3.45;;;2.50;;
39882;SDS011;55824;52.220;21.040;2023-07-02T14:07:11;2.63;;;1.83;;
39882;SDS011;55824;52.220;21.040;2023-07-02T14:09:37;2.50;;;1.80;;
39882;SDS011;55824;52.220;21.040;2023-07-02T14:12:03;1.83;;;1.52;;
39882;SDS011;55824;52.220;21.040;2023-07-02T14:14:29;2.55;;;1.83;;
39882;SDS011;55824;52.220;21.040;2023-07-02T14:16:55;2.40;;;1.90;;
39882;SDS011;55824;52.220;21.040;2023-07-02T14:19:21;2.00;;;1.67;;
39882;SDS011;55824;52.220;21.040;2023-07-02T14:21:47;2.03;;;1.60;;
39882;SDS011;55824;52.220;21.040;2023-07-02T14:24:14;1.90;;;1.70;;
39882;SDS011;55824;52.220;21.040;2023-07-02T14:26:40;2.80;;;1.80;;
39882;SDS011;55824;52.220;21.040;2023-07-02T14:29:08;1.80;;;1.30;;
39882;SDS011;55824;52.220;21.040;2023-07-02T14:31:34;2.58;;;1.67;;
39882;SDS011;55824;52.220;21.040;2023-07-02T14:34:00;3.50;;;1.85;;
39882;SDS011;55824;52.220;21.040;2023-07-02T14:36:26;1.38;;;1.27;;
39882;SDS011;55824;52.220;21.040;2023-07-02T14:38:52;1.65;;;1.50;;
39882;SDS011;55824;52.220;21.040;2023-07-02T14:41:18;1.92;;;1.60;;
39882;SDS011;55824;52.220;21.040;2023-07-02T14:43:44;1.83;;;1.38;;
39882;SDS011;55824;52.220;21.040;2023-07-02T14:46:10;2.28;;;1.63;;
39882;SDS011;55824;52.220;21.040;2023-07-02T14:48:36;1.63;;;1.50;;
39882;SDS011;55824;52.220;21.040;2023-07-02T14:51:02;2.83;;;1.70;;